createdAt,value
2023-02-14T00:02:05.665Z,4.35
2023-02-14T00:04:38.323Z,4.38
2023-02-14T00:07:07.223Z,4.39
2023-02-14T00:09:36.409Z,4.41
2023-02-14T00:12:06.134Z,4.38
2023-02-14T00:14:54.140Z,4.38
2023-02-14T00:17:23.048Z,4.38
2023-02-14T00:19:52.205Z,4.39
2023-02-14T00:22:21.132Z,4.38
2023-02-14T00:24:50.229Z,4.34
2023-02-14T00:27:19.119Z,4.38
2023-02-14T00:29:49.739Z,4.38
2023-02-14T00:32:18.620Z,4.39
2023-02-14T00:34:47.721Z,4.39
2023-02-14T00:37:16.698Z,4.39
2023-02-14T00:39:45.841Z,4.37
2023-02-14T00:42:14.731Z,4.36
2023-02-14T00:44:43.925Z,4.39
2023-02-14T00:47:14.627Z,4.41
2023-02-14T00:49:43.917Z,4.40
2023-02-14T00:52:12.939Z,4.39
2023-02-14T00:54:42.171Z,4.39
2023-02-14T00:57:11.109Z,4.39
2023-02-14T00:59:40.285Z,4.40
2023-02-14T01:02:09.139Z,4.40
2023-02-14T01:04:39.840Z,4.42
2023-02-14T01:07:08.496Z,4.40
2023-02-14T01:09:37.607Z,4.39
2023-02-14T01:12:07.084Z,4.38
2023-02-14T01:14:36.503Z,4.38
2023-02-14T01:17:05.418Z,4.38
2023-02-14T01:19:34.632Z,4.39
2023-02-14T01:22:04.984Z,4.36
2023-02-14T01:24:34.218Z,4.38
2023-02-14T01:27:03.035Z,4.39
2023-02-14T01:29:32.447Z,4.40
2023-02-14T01:32:01.493Z,4.39
2023-02-14T01:34:30.793Z,4.36
2023-02-14T01:36:59.644Z,4.37
2023-02-14T01:39:30.242Z,4.36
2023-02-14T01:41:58.912Z,4.37
2023-02-14T01:44:56.300Z,4.38
2023-02-14T01:47:27.103Z,4.36
2023-02-14T01:50:00.736Z,4.33
2023-02-14T01:52:34.347Z,4.34
2023-02-14T01:55:09.352Z,4.32
2023-02-14T01:57:41.868Z,4.33
2023-02-14T02:00:29.849Z,4.33
2023-02-14T02:03:00.272Z,4.35
2023-02-14T02:05:29.827Z,4.35
2023-02-14T02:08:01.392Z,4.34
2023-02-14T02:10:32.013Z,4.36
2023-02-14T02:13:06.221Z,4.36
2023-02-14T02:15:43.029Z,4.37
2023-02-14T02:18:20.658Z,4.36
2023-02-14T02:21:14.721Z,4.35
2023-02-14T02:24:25.765Z,4.34
2023-02-14T02:27:31.627Z,4.33
2023-02-14T02:30:35.060Z,4.30
2023-02-14T02:33:44.827Z,4.29
2023-02-14T02:36:47.878Z,4.28
2023-02-14T02:39:32.845Z,4.28
2023-02-14T02:42:09.519Z,4.27
2023-02-14T02:44:51.169Z,4.26
2023-02-14T02:47:27.609Z,4.23
2023-02-14T02:50:24.631Z,4.23
2023-02-14T02:53:04.224Z,4.25
2023-02-14T02:56:00.738Z,4.25
2023-02-14T02:58:36.640Z,4.25
2023-02-14T03:01:15.316Z,4.26
2023-02-14T03:04:06.713Z,4.28
2023-02-14T03:06:36.367Z,4.30
2023-02-14T03:09:53.152Z,4.31
2023-02-14T03:12:59.670Z,4.29
2023-02-14T03:15:48.999Z,4.31
2023-02-14T03:18:34.632Z,4.28
2023-02-14T03:21:10.972Z,4.27
2023-02-14T03:23:51.852Z,4.25
2023-02-14T03:26:28.509Z,4.26
2023-02-14T03:29:05.698Z,4.29
2023-02-14T03:31:40.094Z,4.29
2023-02-14T03:34:13.824Z,4.30
2023-02-14T03:36:50.162Z,4.30
2023-02-14T03:39:26.222Z,4.28
2023-02-14T03:42:06.109Z,4.29
2023-02-14T03:44:37.884Z,4.30
2023-02-14T03:47:11.388Z,4.29
2023-02-14T03:49:44.842Z,4.29
2023-02-14T03:52:15.356Z,4.28
2023-02-14T03:54:46.645Z,4.32
2023-02-14T03:57:22.912Z,4.33
2023-02-14T03:59:52.293Z,4.35
2023-02-14T04:02:26.307Z,4.34
2023-02-14T04:04:57.785Z,4.31
2023-02-14T04:07:27.243Z,4.31
2023-02-14T04:09:56.346Z,4.32
2023-02-14T04:12:37.476Z,4.31
2023-02-14T04:15:08.718Z,4.29
2023-02-14T04:17:55.523Z,4.26
2023-02-14T04:20:24.747Z,4.25
2023-02-14T04:22:53.776Z,4.24
2023-02-14T04:25:23.684Z,4.25
2023-02-14T04:27:53.893Z,4.23
2023-02-14T04:30:23.483Z,4.27
2023-02-14T04:32:52.384Z,4.28
2023-02-14T04:35:21.565Z,4.29
2023-02-14T04:37:50.488Z,4.29
2023-02-14T04:40:19.785Z,4.30
2023-02-14T04:42:49.328Z,4.28
2023-02-14T04:45:20.066Z,4.30
2023-02-14T04:47:48.973Z,4.30
2023-02-14T04:50:18.153Z,4.27
2023-02-14T04:52:47.085Z,4.25
2023-02-14T04:55:16.222Z,4.21
2023-02-14T04:57:45.297Z,4.14
2023-02-14T05:00:15.752Z,4.15
2023-02-14T05:02:46.043Z,4.15
2023-02-14T05:05:15.320Z,4.13
2023-02-14T05:07:47.763Z,4.11
2023-02-14T05:10:17.187Z,4.09
2023-02-14T05:12:46.003Z,4.07
2023-02-14T05:15:15.910Z,4.07
2023-02-14T05:17:46.118Z,4.02
2023-02-14T05:20:15.497Z,4.01
2023-02-14T05:22:44.301Z,4.00
2023-02-14T05:25:13.556Z,4.00
2023-02-14T05:27:42.388Z,4.01
2023-02-14T05:30:13.078Z,3.99
2023-02-14T05:32:42.072Z,3.99
2023-02-14T05:35:12.724Z,3.96
2023-02-14T05:37:41.487Z,3.86
2023-02-14T05:40:13.495Z,3.80
2023-02-14T05:42:42.722Z,3.77
2023-02-14T05:45:12.746Z,3.73
2023-02-14T05:47:41.968Z,3.73
2023-02-14T05:50:13.140Z,3.73
2023-02-14T05:52:42.100Z,3.71
2023-02-14T05:55:12.427Z,3.71
2023-02-14T05:57:41.423Z,3.71
2023-02-14T06:00:11.887Z,3.68
2023-02-14T06:02:43.584Z,3.71
2023-02-14T06:05:14.895Z,3.70
2023-02-14T06:07:48.890Z,3.74
2023-02-14T06:10:19.121Z,3.73
2023-02-14T06:12:50.183Z,3.69
2023-02-14T06:15:19.772Z,3.68
2023-02-14T06:17:53.879Z,3.69
2023-02-14T06:20:25.506Z,3.66
2023-02-14T06:22:54.825Z,3.60
2023-02-14T06:25:24.669Z,3.62
2023-02-14T06:27:56.841Z,3.63
2023-02-14T06:30:27.221Z,3.60
2023-02-14T06:32:56.160Z,3.52
2023-02-14T06:35:26.693Z,3.53
2023-02-14T06:37:55.682Z,3.51
2023-02-14T06:40:25.171Z,3.56
2023-02-14T06:42:54.195Z,3.57
2023-02-14T06:45:23.291Z,3.55
2023-02-14T06:47:52.155Z,3.58
2023-02-14T06:50:21.477Z,3.56
2023-02-14T06:52:51.898Z,3.58
2023-02-14T06:55:21.104Z,3.60
2023-02-14T06:57:49.962Z,3.61
2023-02-14T07:00:20.446Z,3.62
2023-02-14T07:02:49.344Z,3.63
2023-02-14T07:05:19.327Z,3.63
2023-02-14T07:07:48.298Z,3.62
2023-02-14T07:10:19.020Z,3.63
2023-02-14T07:12:47.926Z,3.66
2023-02-14T07:15:17.061Z,3.68
2023-02-14T07:17:46.231Z,3.72
2023-02-14T07:20:15.738Z,3.72
2023-02-14T07:22:44.889Z,3.75
2023-02-14T07:25:14.800Z,3.78
2023-02-14T07:27:46.324Z,3.78
2023-02-14T07:30:16.470Z,3.81
2023-02-14T07:32:45.371Z,3.85
2023-02-14T07:35:15.368Z,3.87
2023-02-14T07:37:44.344Z,3.88
2023-02-14T07:40:15.289Z,3.94
2023-02-14T07:42:45.837Z,3.93
2023-02-14T07:45:21.675Z,3.97
2023-02-14T07:47:52.556Z,3.95
2023-02-14T07:50:22.606Z,4.01
2023-02-14T07:52:51.820Z,4.06
2023-02-14T07:55:21.130Z,4.12
2023-02-14T07:57:52.004Z,4.14
2023-02-14T08:00:22.318Z,4.16
2023-02-14T08:02:51.335Z,4.25
2023-02-14T08:05:20.751Z,4.29
2023-02-14T08:07:50.548Z,4.33
2023-02-14T08:10:19.986Z,4.41
2023-02-14T08:13:03.617Z,4.48
2023-02-14T08:15:52.244Z,4.54
2023-02-14T08:18:23.689Z,4.63
2023-02-14T08:20:53.199Z,4.69
2023-02-14T08:23:22.723Z,4.73
2023-02-14T08:25:53.165Z,4.80
2023-02-14T08:28:23.857Z,4.88
2023-02-14T08:30:54.206Z,4.91
2023-02-14T08:33:24.125Z,4.95
2023-02-14T08:35:53.814Z,5.00
2023-02-14T08:38:23.011Z,5.07
2023-02-14T08:40:52.199Z,5.14
2023-02-14T08:43:22.556Z,5.17
2023-02-14T08:45:54.899Z,5.25
2023-02-14T08:48:25.404Z,5.31
2023-02-14T08:50:54.567Z,5.34
2023-02-14T08:53:23.454Z,5.39
2023-02-14T08:55:52.773Z,5.43
2023-02-14T08:58:23.126Z,5.43
2023-02-14T09:00:52.335Z,5.47
2023-02-14T09:03:21.353Z,5.55
2023-02-14T09:05:50.685Z,5.56
2023-02-14T09:08:19.721Z,5.63
2023-02-14T09:10:48.938Z,5.63
2023-02-14T09:13:17.926Z,5.68
2023-02-14T09:15:48.527Z,5.74
2023-02-14T09:18:17.305Z,5.78
2023-02-14T09:20:46.511Z,5.83
2023-02-14T09:23:15.429Z,5.84
2023-02-14T09:25:44.613Z,5.85
2023-02-14T09:28:13.519Z,5.85
2023-02-14T09:30:42.675Z,5.91
2023-02-14T09:33:12.991Z,5.95
2023-02-14T09:35:42.204Z,6.01
2023-02-14T09:38:18.871Z,6.09
2023-02-14T09:40:50.527Z,6.14
2023-02-14T09:43:24.953Z,6.21
2023-02-14T09:45:56.802Z,6.31
2023-02-14T09:48:32.656Z,6.33
2023-02-14T09:51:06.443Z,6.39
2023-02-14T09:53:41.348Z,6.46
2023-02-14T09:56:17.914Z,6.55
2023-02-14T09:58:56.930Z,6.63
2023-02-14T10:01:33.396Z,6.69
2023-02-14T10:04:17.519Z,6.76
2023-02-14T10:06:58.114Z,6.86
2023-02-14T10:09:41.820Z,6.85
2023-02-14T10:12:17.615Z,6.96
2023-02-14T10:14:47.157Z,7.04
2023-02-14T10:17:22.036Z,7.16
2023-02-14T10:19:58.927Z,7.28
2023-02-14T10:22:38.419Z,7.36
2023-02-14T10:25:19.095Z,7.45
2023-02-14T10:27:49.972Z,7.52
2023-02-14T10:30:23.182Z,7.53
2023-02-14T10:33:00.651Z,7.58
2023-02-14T10:35:39.874Z,7.65
2023-02-14T10:38:23.500Z,7.71
2023-02-14T10:41:21.602Z,7.82
2023-02-14T10:44:03.030Z,7.90
2023-02-14T10:46:39.791Z,7.96
2023-02-14T10:49:24.744Z,8.06
2023-02-14T10:52:02.749Z,8.20
2023-02-14T10:54:39.389Z,8.24
2023-02-14T10:57:15.861Z,8.42
2023-02-14T10:59:53.802Z,8.49
2023-02-14T11:02:26.172Z,8.56
2023-02-14T11:04:56.066Z,8.66
2023-02-14T11:07:26.810Z,8.74
2023-02-14T11:09:56.497Z,8.83
2023-02-14T11:12:38.512Z,8.97
2023-02-14T11:15:23.496Z,9.17
2023-02-14T11:18:08.814Z,9.40
2023-02-14T11:20:38.107Z,9.86
2023-02-14T11:23:22.035Z,10.46
2023-02-14T11:25:55.460Z,11.15
2023-02-14T11:28:24.805Z,11.82
2023-02-14T11:30:54.586Z,12.11
2023-02-14T11:33:45.806Z,11.82
2023-02-14T11:36:17.991Z,11.63
2023-02-14T11:38:57.674Z,11.49
2023-02-14T11:41:26.867Z,11.33
2023-02-14T11:44:15.491Z,11.30
2023-02-14T11:46:53.112Z,11.25
2023-02-14T11:49:30.296Z,11.21
2023-02-14T11:52:02.976Z,11.16
2023-02-14T11:54:36.819Z,11.11
2023-02-14T11:57:08.536Z,11.10
2023-02-14T11:59:42.764Z,11.11
2023-02-14T12:02:30.045Z,11.16
2023-02-14T12:05:02.915Z,11.14
2023-02-14T12:07:35.240Z,11.18
2023-02-14T12:10:26.440Z,11.14
2023-02-14T12:13:01.633Z,11.13
2023-02-14T12:15:37.848Z,11.22
2023-02-14T12:18:51.465Z,11.08
2023-02-14T12:21:49.529Z,11.00
2023-02-14T12:24:26.833Z,10.94
2023-02-14T12:27:07.707Z,10.94
2023-02-14T12:29:41.729Z,10.94
2023-02-14T12:32:19.429Z,10.92
2023-02-14T12:34:49.049Z,10.84
2023-02-14T12:37:41.919Z,10.89
2023-02-14T12:40:21.296Z,10.98
2023-02-14T12:43:14.872Z,11.00
2023-02-14T12:46:09.911Z,10.99
2023-02-14T12:48:53.467Z,10.95
2023-02-14T12:51:30.402Z,10.94
2023-02-14T12:54:09.540Z,11.01
2023-02-14T12:56:51.010Z,10.96
2023-02-14T12:59:31.102Z,11.03
2023-02-14T13:02:25.517Z,11.09
2023-02-14T13:05:02.781Z,11.00
2023-02-14T13:07:47.953Z,10.89
2023-02-14T13:10:26.352Z,10.84
2023-02-14T13:13:03.119Z,10.82
2023-02-14T13:15:44.561Z,10.72
2023-02-14T13:18:22.197Z,10.62
2023-02-14T13:20:55.687Z,10.55
2023-02-14T13:23:30.649Z,10.38
2023-02-14T13:26:03.614Z,10.14
2023-02-14T13:28:33.769Z,10.01
2023-02-14T13:31:05.204Z,9.83
2023-02-14T13:33:38.394Z,9.74
2023-02-14T13:36:10.835Z,9.65
2023-02-14T13:38:48.986Z,9.64
2023-02-14T13:41:19.238Z,9.61
2023-02-14T13:43:57.235Z,9.53
2023-02-14T13:46:52.202Z,9.39
2023-02-14T13:49:34.578Z,9.35
2023-02-14T13:52:04.945Z,9.32
2023-02-14T13:54:38.669Z,9.31
2023-02-14T13:57:31.693Z,9.28
2023-02-14T14:00:46.918Z,9.25
2023-02-14T14:03:57.942Z,9.18
2023-02-14T14:06:27.709Z,9.04
2023-02-14T14:08:58.700Z,9.02
2023-02-14T14:12:00.883Z,8.97
2023-02-14T14:14:36.501Z,8.91
2023-02-14T14:17:26.118Z,8.83
2023-02-14T14:19:58.017Z,8.80
2023-02-14T14:22:28.463Z,8.85
2023-02-14T14:25:02.974Z,8.87
2023-02-14T14:27:35.844Z,8.85
2023-02-14T14:30:16.262Z,8.86
2023-02-14T14:32:45.694Z,8.84
2023-02-14T14:35:23.722Z,8.78
2023-02-14T14:37:55.063Z,8.71
2023-02-14T14:40:28.830Z,8.60
2023-02-14T14:43:01.968Z,8.41
2023-02-14T14:45:32.517Z,8.33
2023-02-14T14:48:09.274Z,8.27
2023-02-14T14:50:40.034Z,8.18
2023-02-14T14:53:19.625Z,8.12
2023-02-14T14:55:52.130Z,8.07
2023-02-14T14:58:45.357Z,8.02
2023-02-14T15:01:28.730Z,7.91
2023-02-14T15:04:12.213Z,7.86
2023-02-14T15:06:43.459Z,7.76
2023-02-14T15:09:22.354Z,7.70
2023-02-14T15:12:12.176Z,7.57
2023-02-14T15:14:44.573Z,7.45
2023-02-14T15:17:19.481Z,7.39
2023-02-14T15:19:54.035Z,7.38
2023-02-14T15:22:27.694Z,7.36
2023-02-14T15:24:58.874Z,7.31
2023-02-14T15:27:29.493Z,7.25
2023-02-14T15:30:00.653Z,7.20
2023-02-14T15:32:33.458Z,7.14
2023-02-14T15:35:05.487Z,7.11
2023-02-14T15:37:36.426Z,7.06
2023-02-14T15:40:08.719Z,7.01
2023-02-14T15:42:44.940Z,6.97
2023-02-14T15:45:19.213Z,6.91
2023-02-14T15:47:51.312Z,6.87
2023-02-14T15:50:24.393Z,6.85
2023-02-14T15:52:56.917Z,6.77
2023-02-14T15:55:28.545Z,6.71
2023-02-14T15:58:00.953Z,6.67
2023-02-14T16:00:31.605Z,6.65
2023-02-14T16:03:02.798Z,6.61
2023-02-14T16:05:32.200Z,6.57
2023-02-14T16:08:04.896Z,6.53
2023-02-14T16:10:35.647Z,6.47
2023-02-14T16:13:08.621Z,6.44
2023-02-14T16:15:39.077Z,6.40
2023-02-14T16:18:20.859Z,6.34
2023-02-14T16:20:51.299Z,6.25
2023-02-14T16:23:30.992Z,6.21
2023-02-14T16:26:00.204Z,6.18
2023-02-14T16:28:31.497Z,6.16
2023-02-14T16:31:05.662Z,6.13
2023-02-14T16:33:37.004Z,6.10
2023-02-14T16:36:09.470Z,6.10
2023-02-14T16:38:43.858Z,6.07
2023-02-14T16:41:18.857Z,6.02
2023-02-14T16:43:48.798Z,5.99
2023-02-14T16:46:18.980Z,5.97
2023-02-14T16:48:52.113Z,5.95
2023-02-14T16:51:23.595Z,5.95
2023-02-14T16:53:54.809Z,5.94
2023-02-14T16:56:28.645Z,5.91
2023-02-14T16:58:58.609Z,5.90
2023-02-14T17:01:27.693Z,5.85
2023-02-14T17:03:56.721Z,5.84
2023-02-14T17:06:28.954Z,5.81
2023-02-14T17:09:02.122Z,5.75
2023-02-14T17:11:33.094Z,5.72
2023-02-14T17:14:02.113Z,5.65
2023-02-14T17:16:32.705Z,5.62
2023-02-14T17:19:04.246Z,5.64
2023-02-14T17:21:34.513Z,5.64
2023-02-14T17:24:05.387Z,5.61
2023-02-14T17:26:35.153Z,5.58
2023-02-14T17:29:03.980Z,5.53
2023-02-14T17:31:33.616Z,5.48
2023-02-14T17:34:02.560Z,5.41
2023-02-14T17:36:32.418Z,5.39
2023-02-14T17:39:03.304Z,5.39
2023-02-14T17:41:34.379Z,5.37
2023-02-14T17:44:05.165Z,5.34
2023-02-14T17:46:34.646Z,5.33
2023-02-14T17:49:04.033Z,5.32
2023-02-14T17:51:33.530Z,5.30
2023-02-14T17:54:02.416Z,5.29
2023-02-14T17:56:33.514Z,5.29
2023-02-14T17:59:02.558Z,5.27
2023-02-14T18:01:34.374Z,5.27
2023-02-14T18:04:05.653Z,5.22
2023-02-14T18:06:34.994Z,5.19
2023-02-14T18:09:06.994Z,5.19
2023-02-14T18:11:39.966Z,5.17
2023-02-14T18:14:09.583Z,5.19
2023-02-14T18:16:40.328Z,5.19
2023-02-14T18:19:10.111Z,5.18
2023-02-14T18:21:40.441Z,5.21
2023-02-14T18:24:10.397Z,5.22
2023-02-14T18:26:43.077Z,5.24
2023-02-14T18:29:15.156Z,5.24
2023-02-14T18:31:45.638Z,5.25
2023-02-14T18:34:14.705Z,5.21
2023-02-14T18:36:43.984Z,5.17
2023-02-14T18:39:13.197Z,5.14
2023-02-14T18:41:44.045Z,5.10
2023-02-14T18:44:13.745Z,5.09
2023-02-14T18:46:42.937Z,5.07
2023-02-14T18:49:13.341Z,5.06
2023-02-14T18:51:43.653Z,5.04
2023-02-14T18:54:12.587Z,5.06
2023-02-14T18:56:43.132Z,5.07
2023-02-14T18:59:14.414Z,5.08
2023-02-14T19:01:46.153Z,5.03
2023-02-14T19:04:17.786Z,5.03
2023-02-14T19:06:47.003Z,4.99
2023-02-14T19:09:17.241Z,4.97
2023-02-14T19:11:48.454Z,4.95
2023-02-14T19:14:20.326Z,4.94
2023-02-14T19:16:53.637Z,4.94
2023-02-14T19:19:24.199Z,4.94
2023-02-14T19:21:54.504Z,4.97
2023-02-14T19:24:25.605Z,4.95
2023-02-14T19:26:57.842Z,4.85
2023-02-14T19:29:27.106Z,4.93
2023-02-14T19:31:59.570Z,4.95
2023-02-14T19:34:31.655Z,4.95
2023-02-14T19:37:02.493Z,4.96
2023-02-14T19:39:31.917Z,4.91
2023-02-14T19:42:04.476Z,4.88
2023-02-14T19:44:33.576Z,4.87
2023-02-14T19:47:15.689Z,4.89
2023-02-14T19:49:53.506Z,4.89
2023-02-14T19:52:26.857Z,4.89
2023-02-14T19:54:57.600Z,4.88
2023-02-14T19:57:28.400Z,4.89
2023-02-14T19:59:57.569Z,4.91
2023-02-14T20:02:27.021Z,4.91
2023-02-14T20:04:59.480Z,4.91
2023-02-14T20:07:29.044Z,4.91
2023-02-14T20:09:58.156Z,4.91
2023-02-14T20:12:28.819Z,4.89
2023-02-14T20:14:57.732Z,4.87
2023-02-14T20:17:27.095Z,4.88
2023-02-14T20:19:56.539Z,4.88
2023-02-14T20:22:26.009Z,4.87
2023-02-14T20:24:55.658Z,4.86
2023-02-14T20:27:25.877Z,4.84
2023-02-14T20:29:56.576Z,4.85
2023-02-14T20:32:26.047Z,4.83
2023-02-14T20:34:57.914Z,4.83
2023-02-14T20:37:27.253Z,4.83
2023-02-14T20:39:56.081Z,4.79
2023-02-14T20:42:25.439Z,4.76
2023-02-14T20:44:55.768Z,4.75
2023-02-14T20:47:25.003Z,4.75
2023-02-14T20:49:53.902Z,4.75
2023-02-14T20:52:23.257Z,4.76
2023-02-14T20:54:52.077Z,4.78
2023-02-14T20:57:21.471Z,4.77
2023-02-14T20:59:50.405Z,4.78
2023-02-14T21:02:20.979Z,4.78
2023-02-14T21:04:50.019Z,4.78
2023-02-14T21:07:19.330Z,4.78
2023-02-14T21:09:48.204Z,4.73
2023-02-14T21:12:17.376Z,4.73
2023-02-14T21:14:46.318Z,4.76
2023-02-14T21:17:15.614Z,4.78
2023-02-14T21:19:46.007Z,4.78
2023-02-14T21:22:15.610Z,4.78
2023-02-14T21:24:44.520Z,4.79
2023-02-14T21:27:13.961Z,4.79
2023-02-14T21:29:42.947Z,4.76
2023-02-14T21:32:12.263Z,4.78
2023-02-14T21:34:41.375Z,4.80
2023-02-14T21:37:12.913Z,4.81
2023-02-14T21:39:41.864Z,4.80
2023-02-14T21:42:11.880Z,4.81
2023-02-14T21:44:58.367Z,4.80
2023-02-14T21:47:27.763Z,4.81
2023-02-14T21:50:14.274Z,4.81
2023-02-14T21:52:44.848Z,4.77
2023-02-14T21:55:13.558Z,4.72
2023-02-14T21:57:42.711Z,4.70
2023-02-14T22:00:12.601Z,4.71
2023-02-14T22:02:41.814Z,4.70
2023-02-14T22:05:10.741Z,4.70
2023-02-14T22:07:39.969Z,4.71
2023-02-14T22:10:12.894Z,4.72
2023-02-14T22:12:42.185Z,4.71
2023-02-14T22:15:11.426Z,4.73
2023-02-14T22:17:40.696Z,4.72
2023-02-14T22:20:11.122Z,4.70
2023-02-14T22:22:40.326Z,4.63
2023-02-14T22:25:10.628Z,4.70
2023-02-14T22:27:40.981Z,4.67
2023-02-14T22:30:10.697Z,4.65
2023-02-14T22:32:39.843Z,4.64
2023-02-14T22:35:09.340Z,4.64
2023-02-14T22:37:38.465Z,4.64
2023-02-14T22:40:09.868Z,4.62
2023-02-14T22:42:39.058Z,4.64
2023-02-14T22:45:08.826Z,4.63
2023-02-14T22:47:38.065Z,4.62
2023-02-14T22:50:07.997Z,4.64
2023-02-14T22:52:37.501Z,4.58
2023-02-14T22:55:06.848Z,4.59
2023-02-14T22:57:37.354Z,4.62
2023-02-14T23:00:11.609Z,4.63
2023-02-14T23:02:40.874Z,4.63
2023-02-14T23:05:09.996Z,4.65
2023-02-14T23:07:39.193Z,4.66
2023-02-14T23:10:09.318Z,4.67
2023-02-14T23:12:57.195Z,4.67
2023-02-14T23:15:43.386Z,4.67
2023-02-14T23:18:32.027Z,4.65
2023-02-14T23:21:18.187Z,4.63
2023-02-14T23:23:47.485Z,4.65
2023-02-14T23:26:20.846Z,4.64
2023-02-14T23:28:51.514Z,4.61
2023-02-14T23:31:20.802Z,4.60
2023-02-14T23:33:52.725Z,4.60
2023-02-14T23:36:21.616Z,4.59
2023-02-14T23:38:50.735Z,4.58
2023-02-14T23:41:37.212Z,4.55
2023-02-14T23:44:09.019Z,4.57
2023-02-14T23:46:37.994Z,4.57
2023-02-14T23:49:07.548Z,4.57
2023-02-14T23:51:37.325Z,4.57
2023-02-14T23:54:07.341Z,4.57
2023-02-14T23:56:36.744Z,4.58
2023-02-14T23:59:08.038Z,4.57
